^^
Station Historical Data
Daily Summary for May 19, 2017 Units:  English    Metric   Both
« Previous Day
Next Day »
Daily Weekly Monthly Yearly Custom
  High: Low: Average:
Temperature: 90.0 °F 63.6 °F 78.9 °F
Dew Point: 74.6 °F 51.9 °F 65.1 °F
Humidity: 90% 43% 64%
Wind Speed: 7.0mph 0.0mph 2mph
Wind Gust: 22.0mph - -
Wind- - WSW
Pressure: 30.05 in 29.83 in -
Precipitation: 0.17 in    
Historical Graphs
 
 
Tabular Data for May 19, 2017
Time Temperature Dew Point Pressure Wind Wind Speed Wind Gust Humidity Rainfall Rate (Hourly) Conditions
00:00 80.4 °F 66.2 °F 29.85 in SSW 5.0 mph 17.0 mph 62% 0.00 in CLR
00:15 80.0 °F 66.3 °F 29.85 in SW 3.0 mph 14.0 mph 63% 0.00 in CLR
00:30 79.7 °F 66.4 °F 29.85 in South 3.0 mph 12.0 mph 64% 0.00 in CLR
00:45 79.7 °F 66.4 °F 29.85 in SSW 7.0 mph 22.0 mph 64% 0.00 in CLR
01:00 79.5 °F 66.2 °F 29.85 in SSW 3.0 mph 14.0 mph 64% 0.00 in CLR
02:15 77.4 °F 66.4 °F 29.84 in SSW 3.0 mph 8.0 mph 69% 0.00 in CLR
02:30 77.2 °F 66.7 °F 29.84 in SSW 2.0 mph 9.0 mph 70% 0.00 in CLR
02:45 76.7 °F 66.6 °F 29.84 in SSW 1.0 mph 10.0 mph 71% 0.00 in CLR
03:00 75.9 °F 66.2 °F 29.84 in SSW 1.0 mph 4.0 mph 72% 0.00 in CLR
03:15 75.5 °F 66.2 °F 29.85 in SW 1.0 mph 9.0 mph 73% 0.00 in CLR
03:30 74.8 °F 66.4 °F 29.85 in Calm   6.0 mph 75% 0.00 in CLR
03:45 74.6 °F 66.1 °F 29.84 in SSW 2.0 mph 6.0 mph 75% 0.00 in CLR
04:00 74.4 °F 66.3 °F 29.84 in SSW 1.0 mph 6.0 mph 76% 0.00 in CLR
04:15 74.3 °F 66.2 °F 29.85 in SSW 1.0 mph 5.0 mph 76% 0.00 in CLR
04:30 74.2 °F 66.5 °F 29.85 in Calm   5.0 mph 77% 0.00 in CLR
04:45 73.9 °F 66.2 °F 29.85 in SSW 2.0 mph 6.0 mph 77% 0.00 in CLR
05:00 73.7 °F 66.4 °F 29.86 in SW 2.0 mph 6.0 mph 78% 0.00 in CLR
05:15 73.5 °F 66.2 °F 29.86 in SSW 3.0 mph 7.0 mph 78% 0.00 in CLR
05:30 73.2 °F 66.3 °F 29.86 in SSW 2.0 mph 5.0 mph 79% 0.00 in CLR
05:45 72.9 °F 66.4 °F 29.86 in SW 2.0 mph 7.0 mph 80% 0.00 in CLR
06:00 72.6 °F 66.4 °F 29.87 in SSW 1.0 mph 5.0 mph 81% 0.00 in CLR
06:15 72.5 °F 66.3 °F 29.87 in SW 2.0 mph 6.0 mph 81% 0.00 in CLR
06:30 72.6 °F 66.8 °F 29.88 in South 2.0 mph 7.0 mph 82% 0.00 in CLR
06:45 72.8 °F 66.6 °F 29.88 in SSW 2.0 mph 10.0 mph 81% 0.00 in CLR
07:00 73.2 °F 67.0 °F 29.88 in SW 3.0 mph 10.0 mph 81% 0.00 in CLR
07:15 73.5 °F 66.9 °F 29.88 in SSW 3.0 mph 12.0 mph 80% 0.00 in CLR
07:30 73.9 °F 67.0 °F 29.88 in South 2.0 mph 8.0 mph 79% 0.00 in CLR
07:45 74.8 °F 67.5 °F 29.89 in South 3.0 mph 9.0 mph 78% 0.00 in CLR
08:00 75.9 °F 67.8 °F 29.89 in SW 2.0 mph 8.0 mph 76% 0.00 in CLR
08:15 77.1 °F 68.2 °F 29.90 in South 2.0 mph 6.0 mph 74% 0.00 in CLR
08:30 78.1 °F 68.3 °F 29.89 in SSW 1.0 mph 8.0 mph 72% 0.00 in CLR
08:45 78.9 °F 68.3 °F 29.89 in Calm   8.0 mph 70% 0.00 in CLR
09:00 80.1 °F 68.6 °F 29.89 in SSW 2.0 mph 8.0 mph 68% 0.00 in CLR
09:15 80.9 °F 68.5 °F 29.89 in SW 1.0 mph 7.0 mph 66% 0.00 in CLR
09:30 81.7 °F 67.4 °F 29.89 in WSW 1.0 mph 7.0 mph 62% 0.00 in CLR
09:45 82.2 °F 67.4 °F 29.89 in WSW 3.0 mph 7.0 mph 61% 0.00 in CLR
10:00 82.6 °F 66.8 °F 29.88 in WSW 2.0 mph 7.0 mph 59% 0.00 in CLR
10:15 83.7 °F 66.3 °F 29.88 in WSW 5.0 mph 8.0 mph 56% 0.00 in CLR
10:30 84.2 °F 66.2 °F 29.88 in WSW 5.0 mph 10.0 mph 55% 0.00 in CLR
10:45 85.2 °F 66.2 °F 29.88 in West 2.0 mph 12.0 mph 53% 0.00 in CLR
11:00 85.7 °F 66.0 °F 29.88 in SW 2.0 mph 9.0 mph 52% 0.00 in CLR
11:15 86.0 °F 65.8 °F 29.88 in WSW 3.0 mph 7.0 mph 51% 0.00 in FEW
11:30 86.3 °F 65.5 °F 29.88 in SW 5.0 mph 9.0 mph 50% 0.00 in FEW
12:00 87.4 °F 64.7 °F 29.87 in WSW 6.0 mph 9.0 mph 47% 0.00 in FEW
12:15 87.5 °F 66.0 °F 29.87 in WSW 2.0 mph 9.0 mph 49% 0.00 in FEW
12:30 87.8 °F 65.7 °F 29.86 in West 1.0 mph 9.0 mph 48% 0.00 in FEW
12:45 87.4 °F 65.9 °F 29.86 in WSW 2.0 mph 6.0 mph 49% 0.00 in FEW
13:00 87.6 °F 65.5 °F 29.85 in WSW 6.0 mph 10.0 mph 48% 0.00 in FEW
13:15 88.1 °F 66.0 °F 29.85 in WSW 5.0 mph 9.0 mph 48% 0.00 in FEW
13:45 85.5 °F 65.3 °F 29.85 in Calm   6.0 mph 51% 0.00 in FEW
14:00 85.9 °F 66.2 °F 29.85 in SSW 1.0 mph 4.0 mph 52% 0.00 in FEW
14:15 88.2 °F 65.4 °F 29.84 in SW 2.0 mph 8.0 mph 47% 0.00 in SCT
14:30 89.6 °F 66.1 °F 29.84 in West 3.0 mph 8.0 mph 46% 0.00 in SCT
14:45 90.0 °F 64.5 °F 29.83 in WSW 2.0 mph 10.0 mph 43% 0.00 in SCT
15:00 89.5 °F 64.0 °F 29.83 in WSW 1.0 mph 10.0 mph 43% 0.00 in SCT
15:15 88.4 °F 64.3 °F 29.83 in South 2.0 mph 10.0 mph 45% 0.00 in SCT
15:30 84.6 °F 64.4 °F 29.84 in NE 1.0 mph 15.0 mph 51% 0.00 in SCT
15:45 82.0 °F 66.7 °F 29.87 in NW 5.0 mph 12.0 mph 60% 0.03 in RA
16:00 73.0 °F 67.2 °F 29.86 in Calm   17.0 mph 82% 0.14 in RA
16:15 75.1 °F 71.9 °F 29.85 in Calm   1.0 mph 90% 0.00 in BKN
16:30 78.5 °F 72.5 °F 29.84 in Calm   1.0 mph 82% 0.00 in BKN
16:45 81.2 °F 72.1 °F 29.84 in Calm   1.0 mph 74% 0.00 in BKN
17:00 83.1 °F 70.6 °F 29.84 in Calm   2.0 mph 66% 0.00 in BKN
17:15 85.4 °F 71.4 °F 29.84 in Calm   1.0 mph 63% 0.00 in FEW
17:30 85.4 °F 70.9 °F 29.85 in SW 1.0 mph 2.0 mph 62% 0.00 in FEW
17:45 86.5 °F 73.8 °F 29.84 in Calm   1.0 mph 66% 0.00 in FEW
18:00 86.9 °F 74.6 °F 29.84 in Calm   2.0 mph 67% 0.00 in FEW
18:15 88.0 °F 71.9 °F 29.84 in SW 1.0 mph 3.0 mph 59% 0.00 in FEW
18:30 87.4 °F 70.8 °F 29.85 in Calm   2.0 mph 58% 0.00 in FEW
18:45 86.0 °F 71.5 °F 29.85 in Calm   3.0 mph 62% 0.00 in FEW
19:00 83.8 °F 71.2 °F 29.86 in Calm   1.0 mph 66% 0.00 in FEW
19:15 83.2 °F 65.4 °F 29.87 in North 2.0 mph 6.0 mph 55% 0.00 in FEW
19:30 82.5 °F 63.7 °F 29.88 in NNW 2.0 mph 9.0 mph 53% 0.00 in FEW
19:45 80.2 °F 62.5 °F 29.89 in NW 1.0 mph 13.0 mph 55% 0.00 in FEW
20:00 78.6 °F 62.1 °F 29.90 in NNW 5.0 mph 13.0 mph 57% 0.00 in FEW
20:15 77.0 °F 61.1 °F 29.92 in NW 3.0 mph 10.0 mph 58% 0.00 in SCT
20:30 75.9 °F 60.1 °F 29.93 in WNW 1.0 mph 12.0 mph 58% 0.00 in SCT
20:45 74.9 °F 58.6 °F 29.94 in NW 3.0 mph 12.0 mph 57% 0.00 in SCT
21:00 74.2 °F 58.5 °F 29.95 in NW 1.0 mph 8.0 mph 58% 0.00 in SCT
21:15 73.5 °F 57.8 °F 29.95 in NW 5.0 mph 12.0 mph 58% 0.00 in FEW
21:30 72.7 °F 57.1 °F 29.97 in Calm   6.0 mph 58% 0.00 in FEW
21:45 71.6 °F 56.0 °F 29.98 in NNW 3.0 mph 7.0 mph 58% 0.00 in FEW
22:00 70.2 °F 54.8 °F 29.99 in NNW 3.0 mph 12.0 mph 58% 0.00 in FEW
22:15 68.4 °F 52.6 °F 30.00 in NNW 2.0 mph 13.0 mph 57% 0.00 in CLR
22:30 67.4 °F 52.5 °F 30.02 in Calm   10.0 mph 59% 0.00 in CLR
22:45 66.6 °F 52.3 °F 30.02 in WNW 1.0 mph 14.0 mph 60% 0.00 in CLR
23:00 65.9 °F 52.1 °F 30.03 in NNW 1.0 mph 15.0 mph 61% 0.00 in CLR
23:15 65.2 °F 52.3 °F 30.03 in Calm   12.0 mph 63% 0.00 in CLR
23:30 64.3 °F 51.9 °F 30.05 in WNW 2.0 mph 12.0 mph 64% 0.00 in CLR
23:45 63.6 °F 52.0 °F 30.05 in NNW 2.0 mph 9.0 mph 66% 0.00 in CLR
TarryTown NY Weather
Compliments of Weather Underground - 1.5 mb